createdAt,value
2023-03-04T00:02:18.524Z,10.35
2023-03-04T00:04:50.867Z,10.36
2023-03-04T00:07:19.043Z,10.36
2023-03-04T00:09:47.184Z,10.31
2023-03-04T00:12:15.298Z,10.35
2023-03-04T00:14:43.268Z,10.32
2023-03-04T00:17:11.547Z,10.09
2023-03-04T00:19:40.868Z,10.30
2023-03-04T00:22:08.895Z,10.29
2023-03-04T00:24:36.875Z,10.23
2023-03-04T00:27:04.987Z,10.25
2023-03-04T00:29:32.982Z,10.22
2023-03-04T00:32:01.091Z,10.16
2023-03-04T00:34:30.278Z,10.14
2023-03-04T00:37:01.651Z,10.21
2023-03-04T00:39:30.220Z,10.03
2023-03-04T00:41:58.157Z,10.25
2023-03-04T00:44:26.127Z,10.26
2023-03-04T00:46:54.131Z,10.14
2023-03-04T00:49:22.132Z,10.20
2023-03-04T00:51:50.481Z,10.17
2023-03-04T00:54:19.839Z,10.21
2023-03-04T00:56:49.253Z,10.28
2023-03-04T00:59:17.231Z,10.28
2023-03-04T01:01:45.414Z,10.31
2023-03-04T01:04:13.473Z,10.33
2023-03-04T01:06:41.432Z,10.33
2023-03-04T01:09:09.670Z,10.34
2023-03-04T01:11:39.021Z,10.34
2023-03-04T01:14:07.045Z,10.28
2023-03-04T01:16:35.011Z,10.39
2023-03-04T01:19:03.094Z,10.37
2023-03-04T01:21:31.441Z,10.38
2023-03-04T01:23:59.547Z,10.37
2023-03-04T01:26:27.504Z,10.36
2023-03-04T01:28:56.821Z,10.35
2023-03-04T01:31:24.811Z,10.33
2023-03-04T01:33:53.170Z,10.33
2023-03-04T01:36:21.542Z,10.32
2023-03-04T01:38:49.627Z,10.18
2023-03-04T01:41:18.968Z,10.30
2023-03-04T01:43:47.238Z,10.30
2023-03-04T01:46:17.582Z,10.27
2023-03-04T01:48:45.732Z,10.26
2023-03-04T01:51:15.794Z,10.25
2023-03-04T01:53:44.637Z,10.23
2023-03-04T01:56:13.969Z,10.23
2023-03-04T01:58:42.140Z,10.23
2023-03-04T02:01:10.885Z,10.24
2023-03-04T02:03:40.600Z,10.24
2023-03-04T02:06:08.723Z,10.27
2023-03-04T02:08:36.659Z,10.10
2023-03-04T02:11:04.733Z,10.27
2023-03-04T02:13:34.219Z,10.26
2023-03-04T02:16:02.207Z,10.27
2023-03-04T02:18:30.132Z,10.23
2023-03-04T02:21:03.987Z,10.24
2023-03-04T02:23:34.096Z,10.29
2023-03-04T02:26:14.832Z,10.30
2023-03-04T02:28:43.317Z,10.19
2023-03-04T02:31:17.939Z,10.32
2023-03-04T02:33:46.001Z,10.34
2023-03-04T02:36:14.610Z,10.34
2023-03-04T02:38:42.717Z,10.32
2023-03-04T02:41:13.059Z,10.31
2023-03-04T02:43:41.061Z,10.31
2023-03-04T02:46:11.725Z,10.38
2023-03-04T02:48:40.353Z,10.38
2023-03-04T02:51:08.269Z,10.39
2023-03-04T02:53:36.318Z,10.39
2023-03-04T02:56:04.461Z,10.40
2023-03-04T02:58:38.361Z,10.29
2023-03-04T03:01:06.624Z,10.38
2023-03-04T03:03:35.024Z,10.38
2023-03-04T03:06:03.046Z,10.34
2023-03-04T03:08:31.324Z,10.36
2023-03-04T03:11:01.736Z,10.37
2023-03-04T03:13:31.942Z,10.39
2023-03-04T03:16:01.407Z,10.42
2023-03-04T03:18:29.623Z,10.45
2023-03-04T03:20:58.562Z,10.45
2023-03-04T03:23:26.844Z,10.41
2023-03-04T03:25:54.812Z,10.41
2023-03-04T03:28:22.805Z,10.42
2023-03-04T03:30:50.742Z,10.40
2023-03-04T03:33:20.644Z,10.39
2023-03-04T03:35:48.781Z,10.40
2023-03-04T03:38:16.838Z,10.41
2023-03-04T03:40:44.825Z,10.43
2023-03-04T03:43:12.885Z,10.44
2023-03-04T03:45:41.014Z,10.46
2023-03-04T03:48:09.012Z,10.48
2023-03-04T03:50:39.119Z,10.47
2023-03-04T03:53:07.093Z,10.46
2023-03-04T03:55:35.241Z,10.46
2023-03-04T03:58:03.435Z,10.43
2023-03-04T04:00:31.405Z,10.41
2023-03-04T04:02:59.884Z,10.32
2023-03-04T04:05:27.916Z,10.37
2023-03-04T04:07:59.830Z,10.34
2023-03-04T04:10:27.944Z,10.29
2023-03-04T04:12:55.874Z,10.30
2023-03-04T04:15:24.035Z,10.29
2023-03-04T04:17:51.965Z,10.28
2023-03-04T04:20:20.023Z,10.24
2023-03-04T04:22:47.949Z,10.21
2023-03-04T04:25:17.693Z,10.26
2023-03-04T04:27:45.755Z,10.19
2023-03-04T04:30:14.307Z,10.15
2023-03-04T04:32:42.308Z,10.12
2023-03-04T04:35:10.453Z,10.19
2023-03-04T04:37:38.457Z,10.05
2023-03-04T04:40:07.456Z,10.16
2023-03-04T04:42:38.947Z,10.13
2023-03-04T04:45:08.504Z,10.13
2023-03-04T04:47:36.642Z,10.10
2023-03-04T04:50:05.390Z,10.02
2023-03-04T04:52:33.320Z,9.99
2023-03-04T04:55:01.467Z,10.04
2023-03-04T04:57:31.586Z,9.99
2023-03-04T05:00:01.007Z,9.92
2023-03-04T05:02:28.925Z,10.00
2023-03-04T05:04:56.863Z,9.99
2023-03-04T05:07:24.772Z,9.92
2023-03-04T05:09:52.740Z,9.99
2023-03-04T05:12:20.709Z,10.00
2023-03-04T05:14:48.679Z,10.00
2023-03-04T05:17:18.100Z,10.01
2023-03-04T05:19:48.548Z,10.06
2023-03-04T05:22:16.576Z,10.09
2023-03-04T05:24:44.517Z,10.08
2023-03-04T05:27:12.842Z,10.07
2023-03-04T05:29:42.714Z,10.10
2023-03-04T05:32:10.844Z,10.10
2023-03-04T05:34:40.180Z,10.13
2023-03-04T05:37:08.324Z,10.15
2023-03-04T05:39:36.207Z,10.15
2023-03-04T05:42:04.282Z,10.14
2023-03-04T05:44:32.225Z,10.12
2023-03-04T05:47:00.178Z,10.03
2023-03-04T05:49:28.155Z,10.10
2023-03-04T05:51:57.745Z,10.11
2023-03-04T05:54:25.829Z,10.13
2023-03-04T05:56:54.785Z,10.15
2023-03-04T05:59:23.563Z,10.16
2023-03-04T06:01:51.476Z,10.15
2023-03-04T06:04:19.655Z,10.10
2023-03-04T06:06:48.631Z,10.14
2023-03-04T06:09:20.572Z,10.08
2023-03-04T06:11:48.882Z,10.17
2023-03-04T06:14:16.976Z,10.20
2023-03-04T06:16:45.009Z,10.20
2023-03-04T06:19:12.959Z,10.18
2023-03-04T06:21:41.067Z,10.16
2023-03-04T06:24:08.996Z,10.15
2023-03-04T06:26:38.445Z,10.11
2023-03-04T06:29:06.498Z,10.13
2023-03-04T06:31:34.630Z,10.13
2023-03-04T06:34:02.670Z,10.14
2023-03-04T06:36:30.616Z,9.95
2023-03-04T06:38:59.994Z,10.11
2023-03-04T06:41:28.049Z,10.08
2023-03-04T06:43:57.369Z,10.08
2023-03-04T06:46:25.353Z,10.07
2023-03-04T06:48:53.301Z,10.06
2023-03-04T06:51:21.245Z,10.00
2023-03-04T06:53:49.157Z,10.07
2023-03-04T06:56:17.318Z,10.09
2023-03-04T06:58:45.292Z,10.12
2023-03-04T07:01:15.965Z,10.13
2023-03-04T07:03:44.232Z,10.15
2023-03-04T07:06:12.361Z,10.19
2023-03-04T07:08:40.355Z,10.22
2023-03-04T07:11:08.428Z,10.21
2023-03-04T07:13:38.381Z,10.28
2023-03-04T07:16:07.215Z,10.30
2023-03-04T07:18:36.617Z,10.34
2023-03-04T07:21:04.705Z,10.35
2023-03-04T07:23:33.730Z,10.34
2023-03-04T07:26:01.812Z,10.40
2023-03-04T07:28:29.772Z,10.42
2023-03-04T07:30:57.772Z,10.43
2023-03-04T07:33:28.134Z,10.46
2023-03-04T07:36:01.362Z,10.46
2023-03-04T07:38:29.338Z,10.48
2023-03-04T07:40:58.075Z,10.48
2023-03-04T07:43:26.305Z,10.48
2023-03-04T07:45:54.457Z,10.46
2023-03-04T07:48:23.051Z,10.51
2023-03-04T07:50:50.955Z,10.54
2023-03-04T07:53:21.723Z,10.47
2023-03-04T07:55:49.696Z,10.49
2023-03-04T07:58:19.981Z,10.55
2023-03-04T08:00:47.955Z,10.61
2023-03-04T08:03:15.892Z,10.59
2023-03-04T08:05:43.875Z,10.61
2023-03-04T08:08:11.835Z,10.64
2023-03-04T08:10:41.243Z,10.55
2023-03-04T08:13:09.179Z,10.51
2023-03-04T08:15:41.257Z,10.55
2023-03-04T08:18:09.278Z,10.70
2023-03-04T08:20:37.163Z,10.72
2023-03-04T08:23:05.148Z,10.66
2023-03-04T08:25:33.083Z,10.71
2023-03-04T08:28:02.458Z,10.81
2023-03-04T08:30:30.552Z,10.76
2023-03-04T08:32:58.541Z,10.87
2023-03-04T08:35:26.533Z,10.90
2023-03-04T08:37:54.539Z,10.90
2023-03-04T08:40:22.531Z,10.88
2023-03-04T08:42:50.570Z,10.89
2023-03-04T08:45:20.403Z,10.91
2023-03-04T08:47:48.416Z,10.94
2023-03-04T08:51:35.380Z,10.97
2023-03-04T08:54:08.126Z,10.93
2023-03-04T08:56:43.156Z,11.00
2023-03-04T08:59:17.740Z,10.97
2023-03-04T09:01:47.527Z,11.06
2023-03-04T09:04:15.540Z,11.12
2023-03-04T09:06:43.669Z,11.14
2023-03-04T09:09:11.692Z,11.14
2023-03-04T09:11:39.612Z,11.13
2023-03-04T09:14:07.700Z,11.13
2023-03-04T09:16:36.371Z,10.92
2023-03-04T09:19:05.705Z,10.98
2023-03-04T09:21:33.736Z,11.09
2023-03-04T09:24:01.782Z,10.87
2023-03-04T09:26:30.213Z,11.09
2023-03-04T09:28:59.208Z,11.10
2023-03-04T09:31:27.520Z,11.03
2023-03-04T09:33:56.324Z,11.10
2023-03-04T09:36:25.722Z,11.21
2023-03-04T09:38:53.704Z,11.26
2023-03-04T09:41:23.238Z,11.34
2023-03-04T09:43:51.376Z,11.31
2023-03-04T09:46:21.597Z,11.40
2023-03-04T09:48:50.598Z,11.44
2023-03-04T09:51:31.648Z,11.38
2023-03-04T09:54:25.256Z,11.42
2023-03-04T09:56:53.378Z,11.37
2023-03-04T09:59:25.328Z,11.37
2023-03-04T10:01:55.100Z,11.35
2023-03-04T10:04:36.291Z,11.34
2023-03-04T10:07:06.409Z,11.34
2023-03-04T10:09:43.498Z,11.49
2023-03-04T10:12:13.418Z,11.48
2023-03-04T10:14:45.423Z,11.37
2023-03-04T10:17:15.229Z,11.40
2023-03-04T10:19:50.443Z,11.39
2023-03-04T10:22:21.948Z,11.42
2023-03-04T10:24:50.034Z,11.56
2023-03-04T10:27:19.125Z,11.50
2023-03-04T10:29:49.038Z,11.60
2023-03-04T10:32:18.057Z,11.61
2023-03-04T10:34:46.043Z,11.57
2023-03-04T10:37:14.229Z,11.66
2023-03-04T10:39:44.831Z,11.68
2023-03-04T10:42:28.921Z,11.58
2023-03-04T10:44:58.430Z,11.69
2023-03-04T10:47:27.178Z,11.69
2023-03-04T10:49:56.412Z,11.81
2023-03-04T10:52:29.871Z,11.75
2023-03-04T10:55:00.329Z,11.80
2023-03-04T10:57:34.900Z,11.93
2023-03-04T11:00:04.592Z,11.78
2023-03-04T11:02:35.215Z,11.96
2023-03-04T11:05:09.153Z,11.95
2023-03-04T11:07:53.900Z,12.06
2023-03-04T11:10:26.014Z,12.10
2023-03-04T11:12:57.404Z,12.05
2023-03-04T11:15:27.629Z,12.11
2023-03-04T11:17:56.316Z,12.13
2023-03-04T11:20:29.504Z,12.17
2023-03-04T11:22:59.847Z,12.24
2023-03-04T11:25:32.292Z,12.22
2023-03-04T11:28:01.411Z,12.22
2023-03-04T11:30:40.989Z,12.23
2023-03-04T11:33:18.462Z,12.21
2023-03-04T11:35:53.450Z,12.30
2023-03-04T11:38:28.349Z,12.28
2023-03-04T11:40:58.958Z,12.36
2023-03-04T11:43:31.299Z,12.37
2023-03-04T11:46:23.148Z,12.34
2023-03-04T11:48:57.090Z,12.35
2023-03-04T11:51:26.979Z,12.52
2023-03-04T11:54:14.403Z,12.57
2023-03-04T11:56:45.348Z,12.52
2023-03-04T11:59:31.228Z,12.63
2023-03-04T12:02:18.319Z,12.77
2023-03-04T12:05:13.466Z,12.82
2023-03-04T12:07:47.940Z,12.78
2023-03-04T12:10:22.186Z,12.80
2023-03-04T12:13:02.112Z,12.73
2023-03-04T12:15:32.028Z,12.69
2023-03-04T12:18:19.411Z,12.71
2023-03-04T12:20:54.422Z,12.71
2023-03-04T12:23:41.320Z,12.74
2023-03-04T12:26:09.674Z,12.74
2023-03-04T12:28:44.480Z,12.84
2023-03-04T12:34:53.384Z,12.92
2023-03-04T12:37:44.242Z,12.75
2023-03-04T12:40:39.864Z,12.80
2023-03-04T12:43:25.768Z,12.86
2023-03-04T12:46:00.101Z,12.86
2023-03-04T12:48:30.955Z,12.82
2023-03-04T12:51:05.644Z,12.78
2023-03-04T12:53:37.169Z,12.77
2023-03-04T12:56:05.272Z,12.77
2023-03-04T12:58:34.685Z,12.82
2023-03-04T13:01:08.027Z,12.90
2023-03-04T13:03:41.942Z,13.01
2023-03-04T13:06:17.978Z,13.04
2023-03-04T13:08:53.447Z,12.81
2023-03-04T13:11:47.307Z,12.95
2023-03-04T13:14:32.238Z,12.89
2023-03-04T13:17:02.715Z,12.91
2023-03-04T13:19:47.354Z,12.85
2023-03-04T13:22:33.925Z,12.80
2023-03-04T13:25:04.404Z,12.81
2023-03-04T13:27:49.350Z,12.81
2023-03-04T13:30:44.802Z,12.84
2023-03-04T13:34:00.341Z,12.84
2023-03-04T13:36:56.013Z,12.75
2023-03-04T13:39:27.177Z,12.75
2023-03-04T13:41:55.602Z,12.68
2023-03-04T13:44:48.744Z,12.63
2023-03-04T13:47:17.680Z,12.62
2023-03-04T13:49:47.307Z,12.67
2023-03-04T13:52:44.331Z,12.70
2023-03-04T13:55:43.143Z,12.79
2023-03-04T13:58:22.796Z,12.82
2023-03-04T14:00:52.298Z,12.80
2023-03-04T14:03:22.695Z,12.76
2023-03-04T14:06:18.903Z,12.78
2023-03-04T14:08:47.232Z,12.65
2023-03-04T14:11:16.249Z,12.76
2023-03-04T14:13:45.302Z,12.59
2023-03-04T14:16:20.570Z,12.73
2023-03-04T14:18:58.713Z,12.68
2023-03-04T14:21:28.366Z,12.65
2023-03-04T14:24:07.101Z,12.54
2023-03-04T14:26:35.370Z,12.69
2023-03-04T14:29:03.996Z,12.67
2023-03-04T14:31:32.835Z,12.57
2023-03-04T14:34:02.637Z,12.56
2023-03-04T14:36:33.443Z,12.45
2023-03-04T14:39:02.665Z,12.52
2023-03-04T14:41:34.358Z,12.43
2023-03-04T14:44:05.747Z,12.44
2023-03-04T14:46:35.522Z,12.39
2023-03-04T14:49:03.699Z,12.34
2023-03-04T14:51:45.745Z,12.35
2023-03-04T14:54:31.242Z,12.39
2023-03-04T14:56:59.661Z,12.32
2023-03-04T14:59:32.293Z,12.17
2023-03-04T15:02:33.275Z,12.29
2023-03-04T15:05:16.469Z,12.22
2023-03-04T15:07:59.056Z,12.31
2023-03-04T15:10:28.504Z,12.31
2023-03-04T15:13:00.092Z,12.28
2023-03-04T15:15:36.902Z,12.15
2023-03-04T15:18:13.808Z,12.27
2023-03-04T15:20:42.062Z,12.27
2023-03-04T15:23:14.797Z,12.26
2023-03-04T15:25:42.921Z,12.24
2023-03-04T15:28:16.854Z,12.19
2023-03-04T15:30:45.097Z,12.26
2023-03-04T15:33:13.687Z,12.15
2023-03-04T15:35:44.244Z,12.19
2023-03-04T15:38:17.068Z,12.15
2023-03-04T15:40:45.065Z,12.08
2023-03-04T15:43:14.803Z,12.19
2023-03-04T15:45:43.209Z,12.23
2023-03-04T15:48:13.476Z,12.28
2023-03-04T15:50:43.223Z,12.25
2023-03-04T15:53:16.239Z,12.18
2023-03-04T15:55:45.432Z,12.25
2023-03-04T15:58:13.475Z,12.10
2023-03-04T16:00:41.633Z,12.07
2023-03-04T16:03:14.370Z,11.99
2023-03-04T16:05:42.542Z,11.89
2023-03-04T16:08:11.576Z,11.93
2023-03-04T16:10:41.293Z,11.90
2023-03-04T16:13:13.318Z,12.06
2023-03-04T16:15:41.501Z,12.03
2023-03-04T16:18:10.267Z,11.88
2023-03-04T16:20:38.583Z,12.04
2023-03-04T16:23:06.598Z,12.00
2023-03-04T16:25:34.565Z,11.84
2023-03-04T16:28:04.190Z,11.87
2023-03-04T16:30:32.252Z,11.85
2023-03-04T16:33:00.231Z,11.90
2023-03-04T16:35:29.262Z,11.85
2023-03-04T16:37:57.427Z,11.70
2023-03-04T16:40:26.953Z,11.79
2023-03-04T16:42:55.106Z,11.74
2023-03-04T16:45:26.580Z,11.75
2023-03-04T16:47:54.900Z,11.77
2023-03-04T16:50:25.037Z,11.79
2023-03-04T16:52:53.288Z,11.81
2023-03-04T16:55:22.155Z,11.61
2023-03-04T16:57:50.266Z,11.77
2023-03-04T17:00:19.490Z,11.64
2023-03-04T17:02:51.282Z,11.53
2023-03-04T17:05:20.080Z,11.51
2023-03-04T17:07:48.053Z,11.54
2023-03-04T17:10:16.254Z,11.35
2023-03-04T17:12:44.255Z,11.53
2023-03-04T17:15:13.029Z,11.55
2023-03-04T17:17:41.177Z,11.40
2023-03-04T17:20:12.890Z,11.30
2023-03-04T17:22:41.287Z,11.45
2023-03-04T17:25:09.513Z,11.46
2023-03-04T17:27:37.610Z,11.40
2023-03-04T17:30:06.895Z,11.38
2023-03-04T17:32:35.679Z,11.47
2023-03-04T17:35:05.651Z,11.27
2023-03-04T17:37:35.524Z,11.28
2023-03-04T17:40:03.869Z,11.31
2023-03-04T17:42:31.894Z,11.27
2023-03-04T17:44:59.896Z,11.22
2023-03-04T17:47:28.015Z,11.29
2023-03-04T17:49:57.381Z,11.18
2023-03-04T17:52:25.775Z,11.26
2023-03-04T17:54:55.156Z,11.16
2023-03-04T17:57:27.023Z,11.19
2023-03-04T17:59:56.188Z,11.24
2023-03-04T18:02:24.944Z,11.19
2023-03-04T18:04:53.066Z,11.12
2023-03-04T18:07:23.400Z,11.10
2023-03-04T18:09:54.354Z,10.91
2023-03-04T18:12:24.173Z,11.01
2023-03-04T18:14:52.463Z,10.95
2023-03-04T18:17:20.431Z,10.96
2023-03-04T18:19:48.525Z,10.95
2023-03-04T18:22:18.607Z,10.98
2023-03-04T18:24:46.709Z,10.98
2023-03-04T18:27:14.952Z,10.91
2023-03-04T18:29:44.784Z,11.04
2023-03-04T18:32:13.157Z,11.09
2023-03-04T18:34:41.147Z,11.11
2023-03-04T18:37:09.568Z,11.12
2023-03-04T18:39:37.689Z,11.15
2023-03-04T18:42:05.882Z,11.12
2023-03-04T18:44:34.000Z,11.12
2023-03-04T18:47:03.585Z,11.12
2023-03-04T18:49:32.404Z,10.95
2023-03-04T18:52:00.520Z,11.11
2023-03-04T18:54:28.625Z,11.16
2023-03-04T18:56:57.391Z,11.17
2023-03-04T18:59:26.621Z,11.20
2023-03-04T19:01:54.713Z,11.19
2023-03-04T19:04:24.290Z,11.04
2023-03-04T19:06:52.418Z,11.15
2023-03-04T19:09:20.616Z,11.10
2023-03-04T19:11:48.652Z,11.05
2023-03-04T19:14:18.257Z,11.03
2023-03-04T19:16:46.383Z,10.93
2023-03-04T19:19:16.737Z,10.98
2023-03-04T19:21:48.483Z,11.00
2023-03-04T19:24:16.455Z,10.88
2023-03-04T19:26:44.545Z,10.95
2023-03-04T19:29:13.635Z,10.95
2023-03-04T19:31:41.887Z,10.87
2023-03-04T19:34:10.103Z,10.75
2023-03-04T19:36:38.252Z,10.87
2023-03-04T19:39:07.640Z,10.92
2023-03-04T19:41:35.760Z,10.96
2023-03-04T19:44:03.779Z,10.96
2023-03-04T19:46:32.330Z,10.87
2023-03-04T19:49:00.371Z,10.85
2023-03-04T19:51:29.187Z,10.92
2023-03-04T19:53:57.209Z,10.96
2023-03-04T19:56:26.622Z,10.82
2023-03-04T19:58:54.875Z,10.96
2023-03-04T20:01:28.120Z,11.01
2023-03-04T20:03:56.977Z,11.04
2023-03-04T20:06:26.841Z,11.06
2023-03-04T20:08:56.355Z,11.04
2023-03-04T20:11:24.541Z,10.97
2023-03-04T20:13:54.115Z,10.90
2023-03-04T20:16:22.436Z,10.83
2023-03-04T20:18:50.925Z,10.79
2023-03-04T20:21:19.150Z,10.74
2023-03-04T20:23:47.155Z,10.73
2023-03-04T20:26:15.297Z,10.76
2023-03-04T20:28:51.659Z,10.80
2023-03-04T20:31:22.448Z,10.83
2023-03-04T20:33:53.215Z,10.82
2023-03-04T20:36:23.144Z,10.83
2023-03-04T20:39:01.472Z,10.74
2023-03-04T20:41:30.639Z,10.84
2023-03-04T20:44:36.013Z,10.86
2023-03-04T20:47:05.775Z,10.83
2023-03-04T20:49:33.806Z,10.86
2023-03-04T20:52:06.330Z,10.88
2023-03-04T20:54:34.376Z,10.92
2023-03-04T20:57:24.253Z,10.98
2023-03-04T20:59:52.422Z,10.95
2023-03-04T21:02:23.466Z,10.92
2023-03-04T21:04:51.682Z,10.91
2023-03-04T21:07:19.610Z,10.88
2023-03-04T21:09:47.617Z,10.87
2023-03-04T21:12:15.662Z,10.79
2023-03-04T21:14:44.929Z,10.76
2023-03-04T21:17:13.016Z,10.74
2023-03-04T21:19:43.381Z,10.66
2023-03-04T21:22:11.668Z,10.80
2023-03-04T21:24:39.969Z,10.79
2023-03-04T21:27:08.477Z,10.68
2023-03-04T21:29:36.425Z,10.69
2023-03-04T21:32:22.429Z,10.59
2023-03-04T21:34:55.346Z,10.57
2023-03-04T21:37:23.756Z,10.71
2023-03-04T21:39:51.860Z,10.86
2023-03-04T21:42:20.022Z,10.89
2023-03-04T21:44:50.009Z,10.86
2023-03-04T21:47:18.741Z,10.87
2023-03-04T21:49:46.788Z,10.91
2023-03-04T21:52:16.208Z,10.92
2023-03-04T21:54:44.484Z,10.92
2023-03-04T21:57:13.551Z,10.93
2023-03-04T21:59:41.709Z,10.94
2023-03-04T22:02:12.612Z,10.96
2023-03-04T22:04:43.803Z,10.99
2023-03-04T22:07:11.874Z,10.95
2023-03-04T22:09:41.267Z,10.91
2023-03-04T22:12:09.770Z,10.68
2023-03-04T22:14:37.820Z,10.82
2023-03-04T22:17:06.229Z,10.82
2023-03-04T22:19:34.488Z,10.83
2023-03-04T22:22:02.418Z,10.82
2023-03-04T22:24:31.965Z,10.86
2023-03-04T22:27:01.528Z,10.91
2023-03-04T22:29:29.553Z,10.79
2023-03-04T22:31:57.773Z,10.80
2023-03-04T22:34:25.933Z,10.88
2023-03-04T22:36:53.996Z,10.86
2023-03-04T22:39:23.338Z,10.85
2023-03-04T22:41:52.084Z,10.77
2023-03-04T22:44:21.583Z,10.84
2023-03-04T22:46:49.885Z,10.71
2023-03-04T22:49:18.238Z,10.82
2023-03-04T22:51:47.192Z,10.75
2023-03-04T22:54:15.537Z,10.82
2023-03-04T22:56:45.501Z,10.83
2023-03-04T22:59:14.104Z,10.59
2023-03-04T23:01:43.598Z,10.74
2023-03-04T23:04:11.539Z,10.71
2023-03-04T23:06:39.918Z,10.62
2023-03-04T23:09:07.997Z,10.75
2023-03-04T23:11:37.305Z,10.79
2023-03-04T23:14:07.271Z,10.83
2023-03-04T23:16:39.542Z,10.78
2023-03-04T23:19:09.096Z,10.86
2023-03-04T23:21:37.781Z,10.91
2023-03-04T23:24:07.006Z,10.88
2023-03-04T23:26:36.167Z,10.89
2023-03-04T23:29:05.307Z,10.86
2023-03-04T23:31:33.681Z,10.81
2023-03-04T23:34:01.949Z,10.80
2023-03-04T23:36:32.949Z,10.60
2023-03-04T23:39:01.753Z,10.69
2023-03-04T23:41:30.998Z,10.56
2023-03-04T23:43:59.577Z,10.71
2023-03-04T23:46:27.880Z,10.71
2023-03-04T23:48:56.018Z,10.72
2023-03-04T23:51:24.794Z,10.77
2023-03-04T23:53:55.620Z,10.78
2023-03-04T23:56:24.616Z,10.83
2023-03-04T23:58:52.999Z,10.82
